Terminal Aerodrome Forecast
Issued by NWS Sterling, VA

Current Version | Previous Version | Text Only | Print | Product List | Glossary On
Versions: 1 2 3 4 5 6 7 8 9 10 11 12 13
000
FTUS41 KLWX 250520
TAFCHO
TAF
KCHO 250520Z 2506/2606 VRB03KT P6SM SCT200
     FM251300 20008KT P6SM SCT200
     FM251500 20010G20KT P6SM FEW050 SCT200
     FM252300 20008KT P6SM SCT200
     FM260100 VRB04KT P6SM SCT200=

USA.gov is the U.S. government's official web portal to all federal, state and local government web resources and services.